KRVS

Richard Lloyd Jones Jr Airport

Tulsa, Oklahoma, USA
KRVS 191609Z 1916/2012 34009G27KT P6SM OVC025 FM192100 35020G25KT P6SM BKN025 FM200000 35010KT P6SM BKN050
Issued Valid From Valid To
Jan-19 @ 16:09 UTC
(an hour ago)
Jan-19 @ 16:00 UTC
(an hour ago)
Jan-20 @ 12:00 UTC
(in 19 hours)
Jan-19 @ 16:00 to Jan-19 @ 21:00
KRVS 191609Z 1916/2012 34009G27KT P6SM OVC025
Wind Visibility Clouds
340° at 9 knots
 Gusting to 27 knots
Greater than 6 miles
  • Overcast at 2,500' AGL
From Jan-19 @ 21:00 to Jan-20 @ 00:00
FM192100 35020G25KT P6SM BKN025
Wind Visibility Clouds
350° at 20 knots
 Gusting to 25 knots
Greater than 6 miles
  • Broken at 2,500' AGL
From Jan-20 @ 00:00 to Jan-20 @ 12:00
FM200000 35010KT P6SM BKN050
Wind Visibility Clouds
350° at 10 knots Greater than 6 miles
  • Broken at 5,000' AGL
KRVS 191609Z 1916/2012 34009G27KT P6SM OVC025 FM192100 35020G25KT P6SM BKN025 FM200000 35010KT P6SM BKN050
Issued Jan-19 @ 16:09 UTC
(an hour ago)
Valid From Jan-19 @ 16:00 UTC
(an hour ago)
Valid To Jan-20 @ 12:00 UTC
(in 19 hours)
Jan-19 @ 16:00 - Jan-19 @ 21:00
Wind Visibility
340° at 9 knots
 Gusting to 27 knots
Greater than 6 miles
Clouds
  • Overcast at 2,500' AGL
From Jan-19 @ 21:00 - Jan-20 @ 00:00
Wind Visibility
350° at 20 knots
 Gusting to 25 knots
Greater than 6 miles
Clouds
  • Broken at 2,500' AGL
From Jan-20 @ 00:00 - Jan-20 @ 12:00
Wind Visibility
350° at 10 knots Greater than 6 miles
Clouds
  • Broken at 5,000' AGL